sensor_id;sensor_type;location;lat;lon;timestamp;temperature;humidity
34574;DHT22;20809;49.594;8.734;2022-11-20T00:01:39;3.80;99.90
34574;DHT22;20809;49.594;8.734;2022-11-20T00:04:40;3.80;99.90
34574;DHT22;20809;49.594;8.734;2022-11-20T00:07:40;3.80;99.90
34574;DHT22;20809;49.594;8.734;2022-11-20T00:10:41;3.80;99.90
34574;DHT22;20809;49.594;8.734;2022-11-20T00:13:43;3.80;99.90
34574;DHT22;20809;49.594;8.734;2022-11-20T00:16:46;3.90;99.90
34574;DHT22;20809;49.594;8.734;2022-11-20T00:22:50;3.80;99.90
34574;DHT22;20809;49.594;8.734;2022-11-20T00:25:51;3.80;99.90
34574;DHT22;20809;49.594;8.734;2022-11-20T00:29:00;3.70;99.90
34574;DHT22;20809;49.594;8.734;2022-11-20T00:32:00;3.70;99.90
34574;DHT22;20809;49.594;8.734;2022-11-20T00:35:01;3.70;99.90
34574;DHT22;20809;49.594;8.734;2022-11-20T00:38:02;3.70;99.90
34574;DHT22;20809;49.594;8.734;2022-11-20T00:41:05;3.80;99.90
34574;DHT22;20809;49.594;8.734;2022-11-20T00:44:06;3.70;99.90
34574;DHT22;20809;49.594;8.734;2022-11-20T00:47:06;3.60;99.90
34574;DHT22;20809;49.594;8.734;2022-11-20T00:50:07;3.70;99.90
34574;DHT22;20809;49.594;8.734;2022-11-20T00:53:08;3.70;99.90
34574;DHT22;20809;49.594;8.734;2022-11-20T00:56:17;3.70;99.90
34574;DHT22;20809;49.594;8.734;2022-11-20T00:59:18;3.70;99.90
34574;DHT22;20809;49.594;8.734;2022-11-20T01:02:19;3.80;99.90
34574;DHT22;20809;49.594;8.734;2022-11-20T01:05:20;3.80;99.90
34574;DHT22;20809;49.594;8.734;2022-11-20T01:08:20;3.80;99.90
34574;DHT22;20809;49.594;8.734;2022-11-20T01:11:24;3.70;99.90
34574;DHT22;20809;49.594;8.734;2022-11-20T01:14:25;3.70;99.90
34574;DHT22;20809;49.594;8.734;2022-11-20T01:17:25;3.70;99.90
34574;DHT22;20809;49.594;8.734;2022-11-20T01:20:26;3.70;99.90
34574;DHT22;20809;49.594;8.734;2022-11-20T01:23:27;3.70;99.90
34574;DHT22;20809;49.594;8.734;2022-11-20T01:26:35;3.70;99.90
34574;DHT22;20809;49.594;8.734;2022-11-20T01:29:36;3.70;99.90
34574;DHT22;20809;49.594;8.734;2022-11-20T01:32:36;3.70;99.90
34574;DHT22;20809;49.594;8.734;2022-11-20T01:35:37;3.70;99.90
34574;DHT22;20809;49.594;8.734;2022-11-20T01:38:38;3.70;99.90
34574;DHT22;20809;49.594;8.734;2022-11-20T01:41:39;3.70;99.90
34574;DHT22;20809;49.594;8.734;2022-11-20T01:45:00;3.70;99.90
34574;DHT22;20809;49.594;8.734;2022-11-20T01:48:01;3.70;99.90
34574;DHT22;20809;49.594;8.734;2022-11-20T01:51:03;3.70;99.90
34574;DHT22;20809;49.594;8.734;2022-11-20T01:54:07;3.60;99.90
34574;DHT22;20809;49.594;8.734;2022-11-20T01:59:08;3.60;99.90
34574;DHT22;20809;49.594;8.734;2022-11-20T02:02:10;3.70;99.90
34574;DHT22;20809;49.594;8.734;2022-11-20T02:08:44;3.60;99.90
34574;DHT22;20809;49.594;8.734;2022-11-20T02:11:44;3.60;99.90
34574;DHT22;20809;49.594;8.734;2022-11-20T02:14:45;3.60;99.90
34574;DHT22;20809;49.594;8.734;2022-11-20T02:17:46;3.60;99.90
34574;DHT22;20809;49.594;8.734;2022-11-20T02:20:49;3.60;99.90
34574;DHT22;20809;49.594;8.734;2022-11-20T02:24:11;3.70;99.90
34574;DHT22;20809;49.594;8.734;2022-11-20T02:27:15;3.80;99.90
34574;DHT22;20809;49.594;8.734;2022-11-20T02:30:16;3.80;99.90
34574;DHT22;20809;49.594;8.734;2022-11-20T02:33:17;3.80;99.90
34574;DHT22;20809;49.594;8.734;2022-11-20T02:36:17;3.80;99.90
34574;DHT22;20809;49.594;8.734;2022-11-20T02:39:19;3.70;99.90
34574;DHT22;20809;49.594;8.734;2022-11-20T02:42:21;3.70;99.90
34574;DHT22;20809;49.594;8.734;2022-11-20T02:45:22;3.70;99.90
34574;DHT22;20809;49.594;8.734;2022-11-20T02:48:25;3.60;99.90
34574;DHT22;20809;49.594;8.734;2022-11-20T02:51:26;3.70;99.90
34574;DHT22;20809;49.594;8.734;2022-11-20T02:54:27;3.70;99.90
34574;DHT22;20809;49.594;8.734;2022-11-20T02:57:28;3.70;99.90
34574;DHT22;20809;49.594;8.734;2022-11-20T03:00:28;3.60;99.90
34574;DHT22;20809;49.594;8.734;2022-11-20T03:03:29;3.60;99.90
34574;DHT22;20809;49.594;8.734;2022-11-20T03:06:30;3.60;99.90
34574;DHT22;20809;49.594;8.734;2022-11-20T03:09:31;3.70;99.90
34574;DHT22;20809;49.594;8.734;2022-11-20T03:12:31;3.70;99.90
34574;DHT22;20809;49.594;8.734;2022-11-20T03:15:32;3.70;99.90
34574;DHT22;20809;49.594;8.734;2022-11-20T03:18:33;3.80;99.90
34574;DHT22;20809;49.594;8.734;2022-11-20T03:21:34;3.80;99.90
34574;DHT22;20809;49.594;8.734;2022-11-20T03:24:35;3.80;99.90
34574;DHT22;20809;49.594;8.734;2022-11-20T03:27:35;3.80;99.90
34574;DHT22;20809;49.594;8.734;2022-11-20T03:30:36;3.80;99.90
34574;DHT22;20809;49.594;8.734;2022-11-20T03:33:37;3.80;99.90
34574;DHT22;20809;49.594;8.734;2022-11-20T03:36:39;3.80;99.90
34574;DHT22;20809;49.594;8.734;2022-11-20T03:39:40;3.80;99.90
34574;DHT22;20809;49.594;8.734;2022-11-20T03:42:41;3.70;99.90
34574;DHT22;20809;49.594;8.734;2022-11-20T03:45:48;3.80;99.90
34574;DHT22;20809;49.594;8.734;2022-11-20T03:48:48;3.80;99.90
34574;DHT22;20809;49.594;8.734;2022-11-20T03:51:49;3.80;99.90
34574;DHT22;20809;49.594;8.734;2022-11-20T03:54:50;3.70;99.90
34574;DHT22;20809;49.594;8.734;2022-11-20T03:57:51;3.70;99.90
34574;DHT22;20809;49.594;8.734;2022-11-20T04:00:52;3.80;99.90
34574;DHT22;20809;49.594;8.734;2022-11-20T04:03:54;3.80;99.90
34574;DHT22;20809;49.594;8.734;2022-11-20T04:06:55;3.90;99.90
34574;DHT22;20809;49.594;8.734;2022-11-20T04:09:55;4.00;99.90
34574;DHT22;20809;49.594;8.734;2022-11-20T04:12:56;4.00;99.90
34574;DHT22;20809;49.594;8.734;2022-11-20T04:15:57;4.00;99.90
34574;DHT22;20809;49.594;8.734;2022-11-20T04:18:59;4.10;99.90
34574;DHT22;20809;49.594;8.734;2022-11-20T04:22:00;4.10;99.90
34574;DHT22;20809;49.594;8.734;2022-11-20T04:25:00;4.10;99.90
34574;DHT22;20809;49.594;8.734;2022-11-20T04:28:01;4.10;99.90
34574;DHT22;20809;49.594;8.734;2022-11-20T04:31:13;4.10;99.90
34574;DHT22;20809;49.594;8.734;2022-11-20T04:34:14;4.10;99.90
34574;DHT22;20809;49.594;8.734;2022-11-20T04:37:15;4.10;99.90
34574;DHT22;20809;49.594;8.734;2022-11-20T04:40:15;4.10;99.90
34574;DHT22;20809;49.594;8.734;2022-11-20T04:43:16;4.10;99.90
34574;DHT22;20809;49.594;8.734;2022-11-20T04:46:18;4.10;99.90
34574;DHT22;20809;49.594;8.734;2022-11-20T04:49:19;4.10;99.90
34574;DHT22;20809;49.594;8.734;2022-11-20T04:52:20;4.10;99.90
34574;DHT22;20809;49.594;8.734;2022-11-20T04:55:20;4.10;99.90
34574;DHT22;20809;49.594;8.734;2022-11-20T04:58:22;4.10;99.90
34574;DHT22;20809;49.594;8.734;2022-11-20T05:01:24;4.00;99.90
34574;DHT22;20809;49.594;8.734;2022-11-20T05:04:25;4.00;99.90
34574;DHT22;20809;49.594;8.734;2022-11-20T05:07:26;4.00;99.90
34574;DHT22;20809;49.594;8.734;2022-11-20T05:10:27;4.00;99.90
34574;DHT22;20809;49.594;8.734;2022-11-20T05:13:27;4.00;99.90
34574;DHT22;20809;49.594;8.734;2022-11-20T05:16:28;4.00;99.90
34574;DHT22;20809;49.594;8.734;2022-11-20T05:19:29;4.00;99.90
34574;DHT22;20809;49.594;8.734;2022-11-20T05:22:29;4.10;99.90
34574;DHT22;20809;49.594;8.734;2022-11-20T05:25:30;4.10;99.90
34574;DHT22;20809;49.594;8.734;2022-11-20T05:28:31;4.20;99.90
34574;DHT22;20809;49.594;8.734;2022-11-20T05:31:32;4.20;99.90
34574;DHT22;20809;49.594;8.734;2022-11-20T05:34:33;4.20;99.90
34574;DHT22;20809;49.594;8.734;2022-11-20T05:37:34;4.30;99.90
34574;DHT22;20809;49.594;8.734;2022-11-20T05:40:34;4.30;99.90
34574;DHT22;20809;49.594;8.734;2022-11-20T05:43:36;4.30;99.90
34574;DHT22;20809;49.594;8.734;2022-11-20T05:46:37;4.30;99.90
34574;DHT22;20809;49.594;8.734;2022-11-20T05:49:38;4.30;99.90
34574;DHT22;20809;49.594;8.734;2022-11-20T05:52:39;4.30;99.90
34574;DHT22;20809;49.594;8.734;2022-11-20T05:55:39;4.20;99.90
34574;DHT22;20809;49.594;8.734;2022-11-20T05:58:40;4.10;99.90
34574;DHT22;20809;49.594;8.734;2022-11-20T06:01:41;4.10;99.90
34574;DHT22;20809;49.594;8.734;2022-11-20T06:04:42;4.10;99.90
34574;DHT22;20809;49.594;8.734;2022-11-20T06:07:42;4.10;99.90
34574;DHT22;20809;49.594;8.734;2022-11-20T06:10:43;4.10;99.90
34574;DHT22;20809;49.594;8.734;2022-11-20T06:13:44;4.10;99.90
34574;DHT22;20809;49.594;8.734;2022-11-20T06:16:45;4.00;99.90
34574;DHT22;20809;49.594;8.734;2022-11-20T06:19:46;4.10;99.90
34574;DHT22;20809;49.594;8.734;2022-11-20T06:22:47;4.20;99.90
34574;DHT22;20809;49.594;8.734;2022-11-20T06:25:47;4.20;99.90
34574;DHT22;20809;49.594;8.734;2022-11-20T06:28:49;4.20;99.90
34574;DHT22;20809;49.594;8.734;2022-11-20T06:31:49;4.20;99.90
34574;DHT22;20809;49.594;8.734;2022-11-20T06:34:50;4.20;99.90
34574;DHT22;20809;49.594;8.734;2022-11-20T06:37:51;4.20;99.90
34574;DHT22;20809;49.594;8.734;2022-11-20T06:40:52;4.20;99.90
34574;DHT22;20809;49.594;8.734;2022-11-20T06:43:52;4.20;99.90
34574;DHT22;20809;49.594;8.734;2022-11-20T06:46:53;4.20;99.90
34574;DHT22;20809;49.594;8.734;2022-11-20T06:49:54;4.30;99.90
34574;DHT22;20809;49.594;8.734;2022-11-20T06:52:54;4.30;99.90
34574;DHT22;20809;49.594;8.734;2022-11-20T06:55:56;4.30;99.90
34574;DHT22;20809;49.594;8.734;2022-11-20T06:58:57;4.30;99.90
34574;DHT22;20809;49.594;8.734;2022-11-20T07:01:58;4.30;99.90
34574;DHT22;20809;49.594;8.734;2022-11-20T07:04:59;4.30;99.90
34574;DHT22;20809;49.594;8.734;2022-11-20T07:08:00;4.20;99.90
34574;DHT22;20809;49.594;8.734;2022-11-20T07:11:02;4.20;99.90
34574;DHT22;20809;49.594;8.734;2022-11-20T07:14:03;4.20;99.90
34574;DHT22;20809;49.594;8.734;2022-11-20T07:17:04;4.20;99.90
34574;DHT22;20809;49.594;8.734;2022-11-20T07:20:04;4.10;99.90
34574;DHT22;20809;49.594;8.734;2022-11-20T07:23:05;4.10;99.90
34574;DHT22;20809;49.594;8.734;2022-11-20T07:26:07;4.20;99.90
34574;DHT22;20809;49.594;8.734;2022-11-20T07:29:08;4.20;99.90
34574;DHT22;20809;49.594;8.734;2022-11-20T07:32:09;4.30;99.90
34574;DHT22;20809;49.594;8.734;2022-11-20T07:35:10;4.40;99.90
34574;DHT22;20809;49.594;8.734;2022-11-20T07:38:11;4.50;99.90
34574;DHT22;20809;49.594;8.734;2022-11-20T07:41:11;4.60;99.90
34574;DHT22;20809;49.594;8.734;2022-11-20T07:44:12;4.60;99.90
34574;DHT22;20809;49.594;8.734;2022-11-20T07:47:13;4.60;99.90
34574;DHT22;20809;49.594;8.734;2022-11-20T07:50:13;4.70;99.90
34574;DHT22;20809;49.594;8.734;2022-11-20T07:53:14;4.70;99.90
34574;DHT22;20809;49.594;8.734;2022-11-20T07:56:20;4.60;99.90
34574;DHT22;20809;49.594;8.734;2022-11-20T07:59:21;4.50;99.90
34574;DHT22;20809;49.594;8.734;2022-11-20T08:02:22;4.60;99.90
34574;DHT22;20809;49.594;8.734;2022-11-20T08:05:23;4.70;99.90
34574;DHT22;20809;49.594;8.734;2022-11-20T08:08:24;4.80;99.90
34574;DHT22;20809;49.594;8.734;2022-11-20T08:11:24;4.90;99.90
34574;DHT22;20809;49.594;8.734;2022-11-20T08:14:44;5.00;99.90
34574;DHT22;20809;49.594;8.734;2022-11-20T08:17:45;5.20;99.90
34574;DHT22;20809;49.594;8.734;2022-11-20T08:20:45;5.30;99.90
34574;DHT22;20809;49.594;8.734;2022-11-20T08:23:46;5.40;99.90
34574;DHT22;20809;49.594;8.734;2022-11-20T08:26:46;5.50;99.90
34574;DHT22;20809;49.594;8.734;2022-11-20T08:29:47;5.50;99.90
34574;DHT22;20809;49.594;8.734;2022-11-20T08:32:48;5.50;99.90
34574;DHT22;20809;49.594;8.734;2022-11-20T08:35:48;5.50;99.90
34574;DHT22;20809;49.594;8.734;2022-11-20T08:38:51;5.50;99.90
34574;DHT22;20809;49.594;8.734;2022-11-20T08:41:52;5.70;99.90
34574;DHT22;20809;49.594;8.734;2022-11-20T08:44:53;5.70;99.90
34574;DHT22;20809;49.594;8.734;2022-11-20T08:47:53;5.70;99.90
34574;DHT22;20809;49.594;8.734;2022-11-20T08:50:58;5.70;99.90
34574;DHT22;20809;49.594;8.734;2022-11-20T08:53:59;5.70;99.90
34574;DHT22;20809;49.594;8.734;2022-11-20T08:57:00;5.60;99.90
34574;DHT22;20809;49.594;8.734;2022-11-20T09:00:00;5.60;99.90
34574;DHT22;20809;49.594;8.734;2022-11-20T09:03:01;5.60;99.90
34574;DHT22;20809;49.594;8.734;2022-11-20T09:06:05;5.70;99.90
34574;DHT22;20809;49.594;8.734;2022-11-20T09:09:06;5.70;99.90
34574;DHT22;20809;49.594;8.734;2022-11-20T09:12:07;5.70;99.90
34574;DHT22;20809;49.594;8.734;2022-11-20T09:15:08;5.60;99.90
34574;DHT22;20809;49.594;8.734;2022-11-20T09:18:09;5.60;99.90
34574;DHT22;20809;49.594;8.734;2022-11-20T09:21:11;5.70;99.90
34574;DHT22;20809;49.594;8.734;2022-11-20T09:24:12;5.80;99.90
34574;DHT22;20809;49.594;8.734;2022-11-20T09:27:13;5.80;99.90
34574;DHT22;20809;49.594;8.734;2022-11-20T09:30:15;5.80;99.90
34574;DHT22;20809;49.594;8.734;2022-11-20T09:33:16;5.90;99.90
34574;DHT22;20809;49.594;8.734;2022-11-20T09:36:17;5.90;99.90
34574;DHT22;20809;49.594;8.734;2022-11-20T09:39:18;5.90;99.90
34574;DHT22;20809;49.594;8.734;2022-11-20T09:42:41;5.90;99.90
34574;DHT22;20809;49.594;8.734;2022-11-20T09:55:45;6.00;99.90
34574;DHT22;20809;49.594;8.734;2022-11-20T09:58:52;6.10;99.90
34574;DHT22;20809;49.594;8.734;2022-11-20T10:01:55;6.10;99.90
34574;DHT22;20809;49.594;8.734;2022-11-20T10:05:06;6.10;99.90
34574;DHT22;20809;49.594;8.734;2022-11-20T10:08:24;6.20;99.90
34574;DHT22;20809;49.594;8.734;2022-11-20T10:15:27;6.30;99.90
34574;DHT22;20809;49.594;8.734;2022-11-20T10:22:22;6.40;99.90
34574;DHT22;20809;49.594;8.734;2022-11-20T10:29:29;5.80;99.90
34574;DHT22;20809;49.594;8.734;2022-11-20T10:32:47;5.80;99.90
34574;DHT22;20809;49.594;8.734;2022-11-20T10:39:37;6.00;99.90
34574;DHT22;20809;49.594;8.734;2022-11-20T10:43:13;6.00;99.90
34574;DHT22;20809;49.594;8.734;2022-11-20T10:46:18;6.10;99.90
34574;DHT22;20809;49.594;8.734;2022-11-20T10:49:20;6.20;99.90
34574;DHT22;20809;49.594;8.734;2022-11-20T10:56:00;6.10;99.90
34574;DHT22;20809;49.594;8.734;2022-11-20T11:02:22;6.00;99.90
34574;DHT22;20809;49.594;8.734;2022-11-20T11:05:39;6.00;99.90
34574;DHT22;20809;49.594;8.734;2022-11-20T11:08:41;6.20;99.90
34574;DHT22;20809;49.594;8.734;2022-11-20T11:11:43;6.30;99.90
34574;DHT22;20809;49.594;8.734;2022-11-20T11:14:55;6.30;99.90
34574;DHT22;20809;49.594;8.734;2022-11-20T11:17:56;6.30;99.90
34574;DHT22;20809;49.594;8.734;2022-11-20T11:21:00;6.30;99.90
34574;DHT22;20809;49.594;8.734;2022-11-20T11:24:04;6.40;99.90
34574;DHT22;20809;49.594;8.734;2022-11-20T11:27:12;6.50;99.90
34574;DHT22;20809;49.594;8.734;2022-11-20T11:30:15;6.50;99.90
34574;DHT22;20809;49.594;8.734;2022-11-20T11:33:24;6.40;99.90
34574;DHT22;20809;49.594;8.734;2022-11-20T11:36:25;6.50;99.90
34574;DHT22;20809;49.594;8.734;2022-11-20T11:39:27;6.50;99.90
34574;DHT22;20809;49.594;8.734;2022-11-20T11:42:29;6.50;99.90
34574;DHT22;20809;49.594;8.734;2022-11-20T11:45:30;6.60;99.90
34574;DHT22;20809;49.594;8.734;2022-11-20T11:48:31;6.60;99.90
34574;DHT22;20809;49.594;8.734;2022-11-20T11:54:57;6.70;99.90
34574;DHT22;20809;49.594;8.734;2022-11-20T12:04:40;7.00;99.90
34574;DHT22;20809;49.594;8.734;2022-11-20T12:07:53;7.00;99.90
34574;DHT22;20809;49.594;8.734;2022-11-20T12:14:20;7.20;99.90
34574;DHT22;20809;49.594;8.734;2022-11-20T12:17:24;7.20;99.90
34574;DHT22;20809;49.594;8.734;2022-11-20T12:20:30;7.20;99.90
34574;DHT22;20809;49.594;8.734;2022-11-20T12:23:53;7.30;99.90
34574;DHT22;20809;49.594;8.734;2022-11-20T12:30:41;7.30;99.90
34574;DHT22;20809;49.594;8.734;2022-11-20T12:33:50;7.30;99.90
34574;DHT22;20809;49.594;8.734;2022-11-20T12:40:42;7.40;99.90
34574;DHT22;20809;49.594;8.734;2022-11-20T13:01:04;7.20;99.90
34574;DHT22;20809;49.594;8.734;2022-11-20T13:07:13;7.20;99.90
34574;DHT22;20809;49.594;8.734;2022-11-20T13:10:23;7.10;99.90
34574;DHT22;20809;49.594;8.734;2022-11-20T13:17:22;7.10;99.90
34574;DHT22;20809;49.594;8.734;2022-11-20T13:20:25;7.10;99.90
34574;DHT22;20809;49.594;8.734;2022-11-20T13:23:27;7.00;99.90
34574;DHT22;20809;49.594;8.734;2022-11-20T13:26:28;7.00;99.90
34574;DHT22;20809;49.594;8.734;2022-11-20T13:29:29;7.10;99.90
34574;DHT22;20809;49.594;8.734;2022-11-20T13:32:30;7.10;99.90
34574;DHT22;20809;49.594;8.734;2022-11-20T13:35:33;7.20;99.90
34574;DHT22;20809;49.594;8.734;2022-11-20T13:38:46;7.30;99.90
34574;DHT22;20809;49.594;8.734;2022-11-20T13:41:55;7.40;99.90
34574;DHT22;20809;49.594;8.734;2022-11-20T13:45:01;7.50;99.90
34574;DHT22;20809;49.594;8.734;2022-11-20T13:48:04;7.50;99.90
34574;DHT22;20809;49.594;8.734;2022-11-20T13:54:55;7.50;99.90
34574;DHT22;20809;49.594;8.734;2022-11-20T14:01:38;7.50;99.90
34574;DHT22;20809;49.594;8.734;2022-11-20T14:04:42;7.60;99.90
34574;DHT22;20809;49.594;8.734;2022-11-20T14:07:44;7.60;99.90
34574;DHT22;20809;49.594;8.734;2022-11-20T14:10:45;7.70;99.90
34574;DHT22;20809;49.594;8.734;2022-11-20T14:13:59;7.70;99.90
34574;DHT22;20809;49.594;8.734;2022-11-20T14:17:20;7.70;99.90
34574;DHT22;20809;49.594;8.734;2022-11-20T14:20:23;7.60;99.90
34574;DHT22;20809;49.594;8.734;2022-11-20T14:23:29;7.60;99.90
34574;DHT22;20809;49.594;8.734;2022-11-20T14:26:30;7.60;99.90
34574;DHT22;20809;49.594;8.734;2022-11-20T14:29:34;7.60;99.90
34574;DHT22;20809;49.594;8.734;2022-11-20T14:32:35;7.50;99.90
34574;DHT22;20809;49.594;8.734;2022-11-20T14:35:44;7.40;99.90
34574;DHT22;20809;49.594;8.734;2022-11-20T14:38:46;7.40;99.90
34574;DHT22;20809;49.594;8.734;2022-11-20T14:41:51;7.30;99.90
34574;DHT22;20809;49.594;8.734;2022-11-20T14:44:57;7.30;99.90
34574;DHT22;20809;49.594;8.734;2022-11-20T14:47:59;7.30;99.90
34574;DHT22;20809;49.594;8.734;2022-11-20T14:51:00;7.20;99.90
34574;DHT22;20809;49.594;8.734;2022-11-20T14:54:20;7.10;99.90
34574;DHT22;20809;49.594;8.734;2022-11-20T14:57:30;7.10;99.90
34574;DHT22;20809;49.594;8.734;2022-11-20T15:00:33;7.00;99.90
34574;DHT22;20809;49.594;8.734;2022-11-20T15:03:38;6.90;99.90
34574;DHT22;20809;49.594;8.734;2022-11-20T15:06:50;6.80;99.90
34574;DHT22;20809;49.594;8.734;2022-11-20T15:10:22;6.70;99.90
34574;DHT22;20809;49.594;8.734;2022-11-20T15:13:34;6.60;99.90
34574;DHT22;20809;49.594;8.734;2022-11-20T15:16:36;6.50;99.90
34574;DHT22;20809;49.594;8.734;2022-11-20T15:19:37;6.40;99.90
34574;DHT22;20809;49.594;8.734;2022-11-20T15:22:38;6.40;99.90
34574;DHT22;20809;49.594;8.734;2022-11-20T15:25:40;6.30;99.90
34574;DHT22;20809;49.594;8.734;2022-11-20T15:28:45;6.20;99.90
34574;DHT22;20809;49.594;8.734;2022-11-20T15:31:50;6.20;99.90
34574;DHT22;20809;49.594;8.734;2022-11-20T15:34:52;6.00;99.90
34574;DHT22;20809;49.594;8.734;2022-11-20T15:37:53;6.00;99.90
34574;DHT22;20809;49.594;8.734;2022-11-20T15:40:54;5.90;99.90
34574;DHT22;20809;49.594;8.734;2022-11-20T15:43:55;5.90;99.90
34574;DHT22;20809;49.594;8.734;2022-11-20T15:46:55;5.80;99.90
34574;DHT22;20809;49.594;8.734;2022-11-20T15:49:56;5.80;99.90
34574;DHT22;20809;49.594;8.734;2022-11-20T15:52:57;5.80;99.90
34574;DHT22;20809;49.594;8.734;2022-11-20T15:55:57;5.80;99.90
34574;DHT22;20809;49.594;8.734;2022-11-20T15:58:58;5.80;99.90
34574;DHT22;20809;49.594;8.734;2022-11-20T16:01:58;5.80;99.90
34574;DHT22;20809;49.594;8.734;2022-11-20T16:04:59;5.80;99.90
34574;DHT22;20809;49.594;8.734;2022-11-20T16:08:00;5.80;99.90
34574;DHT22;20809;49.594;8.734;2022-11-20T16:11:02;5.90;99.90
34574;DHT22;20809;49.594;8.734;2022-11-20T16:14:06;5.90;99.90
34574;DHT22;20809;49.594;8.734;2022-11-20T16:17:25;5.90;99.90
34574;DHT22;20809;49.594;8.734;2022-11-20T16:20:43;5.90;99.90
34574;DHT22;20809;49.594;8.734;2022-11-20T16:23:44;5.80;99.90
34574;DHT22;20809;49.594;8.734;2022-11-20T16:26:45;5.90;99.90
34574;DHT22;20809;49.594;8.734;2022-11-20T16:29:45;5.90;99.90
34574;DHT22;20809;49.594;8.734;2022-11-20T16:32:46;5.90;99.90
34574;DHT22;20809;49.594;8.734;2022-11-20T16:35:47;5.90;99.90
34574;DHT22;20809;49.594;8.734;2022-11-20T16:38:52;5.90;99.90
34574;DHT22;20809;49.594;8.734;2022-11-20T16:41:53;5.90;99.90
34574;DHT22;20809;49.594;8.734;2022-11-20T16:44:54;5.90;99.90
34574;DHT22;20809;49.594;8.734;2022-11-20T16:47:54;5.90;99.90
34574;DHT22;20809;49.594;8.734;2022-11-20T16:50:55;5.90;99.90
34574;DHT22;20809;49.594;8.734;2022-11-20T16:53:56;6.00;99.90
34574;DHT22;20809;49.594;8.734;2022-11-20T16:56:57;6.00;99.90
34574;DHT22;20809;49.594;8.734;2022-11-20T16:59:58;6.00;99.90
34574;DHT22;20809;49.594;8.734;2022-11-20T17:02:58;6.00;99.90
34574;DHT22;20809;49.594;8.734;2022-11-20T17:05:59;6.00;99.90
34574;DHT22;20809;49.594;8.734;2022-11-20T17:09:01;6.10;99.90
34574;DHT22;20809;49.594;8.734;2022-11-20T17:12:02;6.10;99.90
34574;DHT22;20809;49.594;8.734;2022-11-20T17:15:03;6.20;99.90
34574;DHT22;20809;49.594;8.734;2022-11-20T17:18:04;6.30;99.90
34574;DHT22;20809;49.594;8.734;2022-11-20T17:21:06;6.20;99.90
34574;DHT22;20809;49.594;8.734;2022-11-20T17:24:10;6.30;99.90
34574;DHT22;20809;49.594;8.734;2022-11-20T17:27:10;6.30;99.90
34574;DHT22;20809;49.594;8.734;2022-11-20T17:30:11;6.20;99.90
34574;DHT22;20809;49.594;8.734;2022-11-20T17:33:12;6.20;99.90
34574;DHT22;20809;49.594;8.734;2022-11-20T17:36:14;6.20;99.90
34574;DHT22;20809;49.594;8.734;2022-11-20T17:39:16;6.20;99.90
34574;DHT22;20809;49.594;8.734;2022-11-20T17:42:17;6.20;99.90
34574;DHT22;20809;49.594;8.734;2022-11-20T17:45:27;6.10;99.90
34574;DHT22;20809;49.594;8.734;2022-11-20T17:48:29;6.10;99.90
34574;DHT22;20809;49.594;8.734;2022-11-20T17:51:32;6.10;99.90
34574;DHT22;20809;49.594;8.734;2022-11-20T17:54:34;6.20;99.90
34574;DHT22;20809;49.594;8.734;2022-11-20T17:57:35;6.20;99.90
34574;DHT22;20809;49.594;8.734;2022-11-20T18:01:05;6.20;99.90
34574;DHT22;20809;49.594;8.734;2022-11-20T18:04:06;6.10;99.90
34574;DHT22;20809;49.594;8.734;2022-11-20T18:07:07;6.10;99.90
34574;DHT22;20809;49.594;8.734;2022-11-20T18:10:08;6.00;99.90
34574;DHT22;20809;49.594;8.734;2022-11-20T18:13:09;6.00;99.90
34574;DHT22;20809;49.594;8.734;2022-11-20T18:16:10;6.00;99.90
34574;DHT22;20809;49.594;8.734;2022-11-20T18:19:13;5.90;99.90
34574;DHT22;20809;49.594;8.734;2022-11-20T18:22:16;5.90;99.90
34574;DHT22;20809;49.594;8.734;2022-11-20T18:25:17;5.90;99.90
34574;DHT22;20809;49.594;8.734;2022-11-20T18:28:17;5.80;99.90
34574;DHT22;20809;49.594;8.734;2022-11-20T18:31:19;5.80;99.90
34574;DHT22;20809;49.594;8.734;2022-11-20T18:34:20;5.70;99.90
34574;DHT22;20809;49.594;8.734;2022-11-20T18:37:20;5.70;99.90
34574;DHT22;20809;49.594;8.734;2022-11-20T18:40:21;5.70;99.90
34574;DHT22;20809;49.594;8.734;2022-11-20T18:43:22;5.80;99.90
34574;DHT22;20809;49.594;8.734;2022-11-20T18:46:41;5.80;99.90
34574;DHT22;20809;49.594;8.734;2022-11-20T18:49:43;5.80;99.90
34574;DHT22;20809;49.594;8.734;2022-11-20T18:52:50;5.80;99.90
34574;DHT22;20809;49.594;8.734;2022-11-20T18:55:50;5.90;99.90
34574;DHT22;20809;49.594;8.734;2022-11-20T18:58:51;5.90;99.90
34574;DHT22;20809;49.594;8.734;2022-11-20T19:01:51;5.90;99.90
34574;DHT22;20809;49.594;8.734;2022-11-20T19:04:52;5.90;99.90
34574;DHT22;20809;49.594;8.734;2022-11-20T19:07:53;5.90;99.90
34574;DHT22;20809;49.594;8.734;2022-11-20T19:10:54;5.80;99.90
34574;DHT22;20809;49.594;8.734;2022-11-20T19:13:55;5.80;99.90
34574;DHT22;20809;49.594;8.734;2022-11-20T19:16:55;5.70;99.90
34574;DHT22;20809;49.594;8.734;2022-11-20T19:19:56;5.60;99.90
34574;DHT22;20809;49.594;8.734;2022-11-20T19:22:57;5.60;99.90
34574;DHT22;20809;49.594;8.734;2022-11-20T19:25:58;5.60;99.90
34574;DHT22;20809;49.594;8.734;2022-11-20T19:28:59;5.50;99.90
34574;DHT22;20809;49.594;8.734;2022-11-20T19:32:00;5.50;99.90
34574;DHT22;20809;49.594;8.734;2022-11-20T19:35:04;5.60;99.90
34574;DHT22;20809;49.594;8.734;2022-11-20T19:38:04;5.60;99.90
34574;DHT22;20809;49.594;8.734;2022-11-20T19:41:06;5.60;99.90
34574;DHT22;20809;49.594;8.734;2022-11-20T19:44:13;5.60;99.90
34574;DHT22;20809;49.594;8.734;2022-11-20T19:47:14;5.60;99.90
34574;DHT22;20809;49.594;8.734;2022-11-20T19:50:15;5.60;99.90
34574;DHT22;20809;49.594;8.734;2022-11-20T19:53:16;5.60;99.90
34574;DHT22;20809;49.594;8.734;2022-11-20T19:56:18;5.60;99.90
34574;DHT22;20809;49.594;8.734;2022-11-20T19:59:18;5.60;99.90
34574;DHT22;20809;49.594;8.734;2022-11-20T20:02:19;5.60;99.90
34574;DHT22;20809;49.594;8.734;2022-11-20T20:05:20;5.60;99.90
34574;DHT22;20809;49.594;8.734;2022-11-20T20:08:20;5.60;99.90
34574;DHT22;20809;49.594;8.734;2022-11-20T20:11:22;5.60;99.90
34574;DHT22;20809;49.594;8.734;2022-11-20T20:14:23;5.60;99.90
34574;DHT22;20809;49.594;8.734;2022-11-20T20:17:24;5.50;99.90
34574;DHT22;20809;49.594;8.734;2022-11-20T20:20:24;5.60;99.90
34574;DHT22;20809;49.594;8.734;2022-11-20T20:23:25;5.60;99.90
34574;DHT22;20809;49.594;8.734;2022-11-20T20:26:27;5.60;99.90
34574;DHT22;20809;49.594;8.734;2022-11-20T20:29:29;5.60;99.90
34574;DHT22;20809;49.594;8.734;2022-11-20T20:32:30;5.50;99.90
34574;DHT22;20809;49.594;8.734;2022-11-20T20:35:31;5.50;99.90
34574;DHT22;20809;49.594;8.734;2022-11-20T20:38:32;5.50;99.90
34574;DHT22;20809;49.594;8.734;2022-11-20T20:41:33;5.60;99.90
34574;DHT22;20809;49.594;8.734;2022-11-20T20:44:34;5.60;99.90
34574;DHT22;20809;49.594;8.734;2022-11-20T20:47:53;5.60;99.90
34574;DHT22;20809;49.594;8.734;2022-11-20T20:50:56;5.60;99.90
34574;DHT22;20809;49.594;8.734;2022-11-20T20:53:57;5.70;99.90
34574;DHT22;20809;49.594;8.734;2022-11-20T20:56:58;5.70;99.90
34574;DHT22;20809;49.594;8.734;2022-11-20T20:59:59;5.60;99.90
34574;DHT22;20809;49.594;8.734;2022-11-20T21:03:00;5.60;99.90
34574;DHT22;20809;49.594;8.734;2022-11-20T21:06:01;5.60;99.90